Vernon Springs, Iowa
Current Conditions -  °F | °C
As of 6:55 PM on Wednesday 22 Oct 2014 (Local Time) from KFKA Reporting Station
Clear Clear  
Wind Chill: 52°   Ceiling: Unl
Heat Index: 52°   Visibility: 10mi
Dew Point: 38°   Wind: 10mph
Humidity: 57%   Direction: 150°SSE
Pressure: 30.15"   Gusts: 16mph
Location:  43.363°N, 92.1685°W
Report Text: KFKA 222355Z AUTO 15009G14KT 10SM CLR 11/03 A3015 RMK AO2 T01130031 10139 20113
Loading
Personal Weather Stations






























Interactive Weather Map
Tropical Storm Tracking
New forecast layout! Learn more

10-Day Weather Forecast

Advertisements
Track Severe Weather on mobile